»·PEaware :: N41G KOXR-KSMO

N41G :: KOXR-KSMO

FLIGHT INFORMATION

Flight Status: Arrived
Operator: Privately registered:
United States
More flights under this callsign
Pilot: Alec D. (17934)
Aircraft: BEECH AIRCRAFT BONANZA
(BE35)
More flights by this aircraft type
Origin: KOXR Oxnard
United States
Destination: KSMO Santa Monica Mun
United States
More flights between these airports :: More routes between these airports
Route: +VTU044 GINNA V326 VNY V186 DARTS
File this flight plan on PilotEdge
Remarks:
Altitude:
(Current/Filed)
5,000ft
Speed:
(Current/Filed)
160kts
Departed: 19-Mar-20 10:27 AM
Arrived: 19-Mar-20 10:55 AM
Distance/Time
Traveled:
39nm/0:27
Distance/Time
To Go:
Arrived

Flight Plot

Page will automatically refresh every two minutes.


Map Options




Map Legend


Flown Route
Filed Route
Departure Airport
Arrival Airport
Navaid (VOR, NDB)
Fix

Horizontal Profiles

Position Reports

Time Latitude Longitude Heading Altitude Ground
Speed
19-Mar-20 10:00 34.198120 -119.200033 89 46ft 0kts
19-Mar-20 10:01 34.198120 -119.200033 89 46ft 0kts
19-Mar-20 10:02 34.198120 -119.200033 89 46ft 0kts
19-Mar-20 10:03 34.198120 -119.200028 89 46ft 0kts
19-Mar-20 10:04 34.198120 -119.200021 89 46ft 0kts
19-Mar-20 10:05 34.198120 -119.200014 89 46ft 0kts
19-Mar-20 10:06 34.198120 -119.200007 89 46ft 0kts
19-Mar-20 10:06 34.198120 -119.200001 89 46ft 0kts
19-Mar-20 10:08 34.198120 -119.199993 89 46ft 0kts
19-Mar-20 10:09 34.198120 -119.199986 89 46ft 0kts
19-Mar-20 10:09 34.198120 -119.199980 89 46ft 0kts
19-Mar-20 10:10 34.198120 -119.199972 89 46ft 0kts
19-Mar-20 10:12 34.198120 -119.199964 89 46ft 0kts
19-Mar-20 10:12 34.198120 -119.199958 89 46ft 0kts
19-Mar-20 10:13 34.198120 -119.199951 89 46ft 0kts
19-Mar-20 10:15 34.198120 -119.199942 89 46ft 0kts
19-Mar-20 10:15 34.198120 -119.199936 89 46ft 0kts
19-Mar-20 10:16 34.198120 -119.199929 89 46ft 0kts
19-Mar-20 10:17 34.198120 -119.199921 89 46ft 0kts
19-Mar-20 10:18 34.198120 -119.199914 89 46ft 0kts
19-Mar-20 10:19 34.198120 -119.199906 89 46ft 0kts
19-Mar-20 10:20 34.198120 -119.199899 89 46ft 0kts
19-Mar-20 10:21 34.198920 -119.199735 5 46ft 6kts
19-Mar-20 10:22 34.199919 -119.198108 345 46ft 0kts
19-Mar-20 10:23 34.199931 -119.198112 345 46ft 0kts
19-Mar-20 10:24 34.199937 -119.198113 345 46ft 0kts
19-Mar-20 10:25 34.199943 -119.198115 345 46ft 0kts
19-Mar-20 10:26 34.200810 -119.206851 268 82ft 91kts
19-Mar-20 10:27 34.201347 -119.241264 269 1291ft 109kts
19-Mar-20 10:28 34.202130 -119.279718 269 2443ft 118kts
19-Mar-20 10:29 34.185699 -119.300715 177 3756ft 110kts
19-Mar-20 10:30 34.154086 -119.294486 173 4880ft 120kts
19-Mar-20 10:31 34.118623 -119.279583 110 5003ft 156kts
19-Mar-20 10:32 34.122380 -119.225411 84 5000ft 165kts
19-Mar-20 10:33 34.132814 -119.171344 72 5005ft 166kts
19-Mar-20 10:34 34.147454 -119.118238 72 5006ft 167kts
19-Mar-20 10:35 34.161656 -119.064857 72 5005ft 167kts
19-Mar-20 10:36 34.175779 -119.011413 72 4999ft 167kts
19-Mar-20 10:37 34.189884 -118.957897 72 4996ft 167kts
19-Mar-20 10:38 34.203954 -118.904405 73 4994ft 167kts
19-Mar-20 10:39 34.217984 -118.850957 73 4995ft 166kts
19-Mar-20 10:40 34.223065 -118.796060 91 5023ft 165kts
19-Mar-20 10:41 34.223178 -118.740267 91 5011ft 166kts
19-Mar-20 10:42 34.223283 -118.684629 91 5010ft 166kts
19-Mar-20 10:43 34.223358 -118.628668 91 5012ft 166kts
19-Mar-20 10:44 34.216574 -118.574573 113 5010ft 164kts
19-Mar-20 10:45 34.200930 -118.523706 112 5005ft 157kts
19-Mar-20 10:46 34.186086 -118.474505 112 5008ft 153kts
19-Mar-20 10:47 34.171644 -118.426392 112 5010ft 152kts
19-Mar-20 10:48 34.157048 -118.377662 113 4803ft 160kts
19-Mar-20 10:49 34.125965 -118.352052 181 4172ft 155kts
19-Mar-20 10:50 34.085374 -118.364787 227 2864ft 156kts
19-Mar-20 10:51 34.055862 -118.403793 224 1266ft 154kts
19-Mar-20 10:52 34.033127 -118.430566 226 749ft 85kts
19-Mar-20 10:53 34.017362 -118.449426 228 178ft 55kts
19-Mar-20 10:54 34.014857 -118.453445 313 178ft 0kts
19-Mar-20 10:55 34.016006 -118.452947 354 178ft 15kts
19-Mar-20 10:56 34.017246 -118.452978 43 178ft 0kts

Navigation Log

Ident Type
Flight plan parsing failed, navigation log unavailable